Time;durP1;ratioP1;P1;durP2;ratioP2;P2;SDS_P1;SDS_P2;PMS_P1;PMS_P2;Temp;Humidity;BMP_temperature;BMP_pressure;BME280_temperature;BME280_humidity;BME280_pressure;Samples;Min_cycle;Max_cycle;Signal;HPM_P1;HPM_P2
2021/06/28 00:01:10;;;;;;;;;8.00;8.00;;;;;20.82;65.40;101066.97;6237965;22;45177;-89
2021/06/28 00:03:36;;;;;;;;;7.00;7.00;;;;;20.83;65.05;101076.59;6213198;22;46235;-89
2021/06/28 00:06:02;;;;;;;;;8.00;8.00;;;;;20.80;65.04;101076.84;6213949;22;45387;-90
2021/06/28 00:08:28;;;;;;;;;8.00;7.67;;;;;20.79;65.15;101077.78;6211580;22;45441;-90
2021/06/28 00:10:54;;;;;;;;;9.00;9.00;;;;;20.80;65.86;101074.19;6212487;22;45497;-89
2021/06/28 00:13:19;;;;;;;;;8.00;8.00;;;;;20.79;65.92;101071.66;6211231;22;47066;-89
2021/06/28 00:15:48;;;;;;;;;9.33;9.00;;;;;20.75;65.91;101075.47;6211968;22;45411;-90
2021/06/28 00:18:15;;;;;;;;;7.33;7.33;;;;;20.75;65.83;101075.47;6214120;22;45254;-89
2021/06/28 00:20:44;;;;;;;;;8.33;8.33;;;;;20.74;66.04;101071.16;6212157;22;45411;-89
2021/06/28 00:23:11;;;;;;;;;6.67;6.67;;;;;20.73;65.84;101064.19;6211273;22;47486;-90
2021/06/28 00:25:37;;;;;;;;;7.67;7.33;;;;;20.73;65.66;101061.53;6211810;22;45376;-90
2021/06/28 00:28:05;;;;;;;;;8.33;8.33;;;;;20.76;66.13;101061.28;6211888;22;45355;-89
2021/06/28 00:30:37;;;;;;;;;8.33;8.33;;;;;20.74;65.82;101050.81;6212380;22;45173;-89
2021/06/28 00:33:07;;;;;;;;;8.67;6.33;;;;;20.77;65.95;101052.41;6211267;22;47305;-90
2021/06/28 00:35:33;;;;;;;;;9.33;9.33;;;;;20.73;65.86;101043.84;6211394;22;45290;-90
2021/06/28 00:37:59;;;;;;;;;7.00;7.00;;;;;20.70;66.52;101042.28;6213600;22;45214;-90
2021/06/28 00:40:29;;;;;;;;;8.67;7.67;;;;;20.66;66.15;101034.69;6212544;22;45224;-90
2021/06/28 00:42:58;;;;;;;;;7.67;7.67;;;;;20.64;66.36;101031.34;6211429;22;47847;-89
2021/06/28 00:45:28;;;;;;;;;7.00;7.00;;;;;20.65;66.38;101028.56;6213933;22;45230;-90
2021/06/28 00:47:56;;;;;;;;;6.00;6.00;;;;;20.63;66.38;101030.47;6211415;22;45425;-90
2021/06/28 00:50:24;;;;;;;;;8.00;8.00;;;;;20.59;66.62;101013.16;6216352;22;45239;-90
2021/06/28 00:52:58;;;;;;;;;5.67;5.67;;;;;20.52;66.57;101011.94;6216562;22;46676;-89
2021/06/28 00:55:24;;;;;;;;;6.00;6.00;;;;;20.52;66.39;101011.94;6244559;22;45194;-90
2021/06/28 00:57:53;;;;;;;;;7.00;7.00;;;;;20.51;66.46;101012.91;6243714;22;45417;-90
2021/06/28 01:00:19;;;;;;;;;7.33;6.67;;;;;20.50;66.58;101000.66;6216980;22;45365;-90
2021/06/28 01:02:46;;;;;;;;;6.33;5.67;;;;;20.52;66.71;101012.78;6217436;22;47188;-90
2021/06/28 01:05:17;;;;;;;;;7.33;6.67;;;;;20.50;66.23;101008.56;6216526;22;45801;-90
2021/06/28 01:07:43;;;;;;;;;6.67;6.67;;;;;20.52;66.46;101006.66;6217753;22;45464;-90
2021/06/28 01:10:10;;;;;;;;;6.33;6.00;;;;;20.49;66.19;100993.66;6243015;22;45400;-90
2021/06/28 01:12:35;;;;;;;;;8.33;6.33;;;;;20.53;66.62;100997.75;6244411;22;46311;-89
2021/06/28 01:15:04;;;;;;;;;8.00;7.00;;;;;20.49;66.23;100983.06;6216567;22;45201;-90
2021/06/28 01:17:30;;;;;;;;;5.00;5.00;;;;;20.52;66.14;100986.34;6216783;22;45422;-90
2021/06/28 01:20:05;;;;;;;;;7.33;6.33;;;;;20.51;66.31;100979.34;6217320;22;45623;-89
2021/06/28 01:22:33;;;;;;;;;6.33;5.00;;;;;20.49;66.34;100977.78;6216361;22;47216;-90
2021/06/28 01:24:59;;;;;;;;;5.00;5.00;;;;;20.46;65.92;100970.09;6216239;22;45333;-88
2021/06/28 01:27:29;;;;;;;;;6.33;6.00;;;;;20.48;66.20;100962.88;6243867;22;45357;-90
2021/06/28 01:29:55;;;;;;;;;5.00;3.67;;;;;20.43;66.24;100952.66;6244815;22;45080;-90
2021/06/28 01:32:22;;;;;;;;;5.00;5.00;;;;;20.41;66.59;100954.59;6216734;22;47695;-90
2021/06/28 01:34:47;;;;;;;;;3.67;3.67;;;;;20.45;66.51;100968.41;6216755;22;45482;-90
2021/06/28 01:37:13;;;;;;;;;4.00;4.00;;;;;20.39;66.67;100960.00;6216592;22;45035;-89
2021/06/28 01:39:38;;;;;;;;;4.00;4.00;;;;;20.37;66.57;100976.91;6217009;22;45549;-90
2021/06/28 01:42:04;;;;;;;;;6.00;5.00;;;;;20.32;66.69;100985.16;6217001;22;46847;-90
2021/06/28 01:44:31;;;;;;;;;4.67;4.00;;;;;20.28;66.54;101010.97;6216836;22;45643;-90
2021/06/28 01:46:57;;;;;;;;;4.00;4.00;;;;;20.21;66.65;101022.09;6243983;22;45397;-90
2021/06/28 01:49:22;;;;;;;;;8.00;5.00;;;;;20.12;66.96;101026.25;6217029;22;45228;-90
2021/06/28 01:52:05;;;;;;;;;3.00;3.00;;;;;20.05;67.04;101030.28;6216739;22;46766;-90
2021/06/28 01:54:37;;;;;;;;;3.67;3.67;;;;;19.93;67.11;101030.19;6215721;22;45376;-90
2021/06/28 01:57:10;;;;;;;;;2.33;2.33;;;;;19.84;66.87;101026.41;6244096;22;44804;-89
2021/06/28 02:00:06;;;;;;;;;4.00;3.33;;;;;19.77;67.58;101019.88;6216711;22;45641;-90
2021/06/28 02:02:48;;;;;;;;;2.33;2.33;;;;;19.71;67.20;101005.31;6243811;22;45619;-90
2021/06/28 02:05:13;;;;;;;;;2.00;2.00;;;;;19.73;67.55;101010.47;6216361;22;44793;-89
2021/06/28 02:07:41;;;;;;;;;1.67;1.67;;;;;19.71;67.58;101005.31;6216231;22;45277;-90
2021/06/28 02:10:08;;;;;;;;;2.00;2.00;;;;;19.75;67.44;101011.22;6244886;22;45315;-89
2021/06/28 02:12:33;;;;;;;;;4.00;2.00;;;;;19.76;67.14;101023.44;6216819;22;47736;-90
2021/06/28 02:14:59;;;;;;;;;4.00;3.00;;;;;19.72;67.59;101022.81;6216853;22;45354;-89
2021/06/28 02:17:24;;;;;;;;;4.67;3.00;;;;;19.69;67.69;101030.13;6217421;22;45236;-89
2021/06/28 02:19:50;;;;;;;;;4.00;2.00;;;;;19.63;67.67;101034.06;6217365;22;44814;-89
2021/06/28 02:22:15;;;;;;;;;4.00;2.67;;;;;19.59;67.85;101040.50;6244922;22;45846;-89
2021/06/28 02:24:41;;;;;;;;;3.67;3.00;;;;;19.50;67.88;101024.31;6244438;22;44735;-90
2021/06/28 02:27:07;;;;;;;;;2.00;2.00;;;;;19.47;67.73;101026.34;6217537;22;45443;-88
2021/06/28 02:29:32;;;;;;;;;3.00;3.00;;;;;19.48;68.12;101013.03;6217238;22;45478;-88
2021/06/28 02:31:58;;;;;;;;;3.33;3.33;;;;;19.50;68.23;101003.22;6216907;22;47777;-89
2021/06/28 02:34:23;;;;;;;;;2.67;2.67;;;;;19.52;68.14;101000.47;6244853;22;45400;-90
2021/06/28 02:36:49;;;;;;;;;4.00;2.00;;;;;19.55;68.22;101005.56;6217536;22;45444;-89
2021/06/28 02:39:14;;;;;;;;;2.00;2.00;;;;;19.57;67.76;101000.13;6217530;22;45197;-89
2021/06/28 02:41:40;;;;;;;;;4.00;2.33;;;;;19.56;67.68;100995.81;6216872;22;48448;-89
2021/06/28 02:44:12;;;;;;;;;1.67;1.67;;;;;19.54;68.21;100995.94;6217167;22;45331;-89
2021/06/28 02:46:39;;;;;;;;;2.33;2.33;;;;;19.56;67.60;100999.31;6217185;22;45234;-89
2021/06/28 02:49:21;;;;;;;;;3.00;3.00;;;;;19.60;67.54;101010.50;6244316;22;45428;-89
2021/06/28 02:51:56;;;;;;;;;;;;;;;;;;;;;
2021/06/28 02:54:42;;;;;;;;;4.33;3.00;;;;;19.53;67.77;101025.91;6241996;22;71667;-89
2021/06/28 02:57:10;;;;;;;;;2.00;2.00;;;;;19.47;67.68;101028.97;6216918;22;45235;-89
2021/06/28 02:59:43;;;;;;;;;3.33;2.00;;;;;19.39;67.97;101047.97;6217220;22;45277;-89
2021/06/28 03:02:50;;;;;;;;;2.33;2.00;;;;;19.36;67.55;101061.41;6216516;22;46451;-89
2021/06/28 03:05:23;;;;;;;;;2.67;1.33;;;;;19.27;68.24;101054.09;6242762;22;45217;-90
2021/06/28 03:07:53;;;;;;;;;2.33;2.33;;;;;19.18;68.30;101032.69;6245253;22;45340;-90
2021/06/28 03:10:31;;;;;;;;;;;;;;;;;;;;;
2021/06/28 03:12:57;;;;;;;;;1.33;1.33;;;;;19.13;67.91;101028.66;6242440;22;75348;-89
2021/06/28 03:15:30;;;;;;;;;1.33;1.00;;;;;19.11;68.09;101033.19;6216565;22;45410;-88
2021/06/28 03:17:59;;;;;;;;;1.00;1.00;;;;;19.02;68.05;101027.56;6217094;22;45286;-90
2021/06/28 03:20:24;;;;;;;;;2.00;2.00;;;;;19.01;68.29;101020.59;6244353;22;45377;-89
2021/06/28 03:22:53;;;;;;;;;2.67;1.67;;;;;18.96;68.43;100996.31;6216631;22;46948;-89
2021/06/28 03:25:26;;;;;;;;;1.67;1.67;;;;;18.98;68.43;100988.31;6216817;22;45385;-89
2021/06/28 03:27:51;;;;;;;;;2.00;2.00;;;;;18.97;68.57;100982.19;6216816;22;45450;-89
2021/06/28 03:30:25;;;;;;;;;2.00;2.00;;;;;18.98;68.73;100972.50;6217263;22;45418;-88
2021/06/28 03:32:55;;;;;;;;;2.00;2.00;;;;;18.94;68.57;100970.06;6216897;22;47818;-89
2021/06/28 03:35:21;;;;;;;;;2.00;1.33;;;;;18.99;67.92;100963.63;6216000;22;45370;-89
2021/06/28 03:37:49;;;;;;;;;1.00;1.00;;;;;18.93;68.67;100959.63;6244350;22;45259;-89
2021/06/28 03:40:22;;;;;;;;;2.00;2.00;;;;;18.92;67.97;100963.19;6216833;22;45313;-89
2021/06/28 03:42:54;;;;;;;;;1.00;1.00;;;;;18.89;68.17;100972.16;6216647;22;47712;-90
2021/06/28 03:45:20;;;;;;;;;2.00;1.00;;;;;18.88;68.22;100990.75;6216364;22;45363;-89
2021/06/28 03:47:58;;;;;;;;;;;;;;;;;;;;;
2021/06/28 03:50:29;;;;;;;;;1.00;1.00;;;;;18.76;68.71;100997.66;6242201;22;63258;-89
2021/06/28 03:53:04;;;;;;;;;2.33;2.00;;;;;18.71;68.88;101016.44;6216754;22;46915;-89
2021/06/28 03:55:42;;;;;;;;;2.00;2.00;;;;;18.63;68.54;101002.91;6215979;22;45366;-90
2021/06/28 03:58:48;;;;;;;;;1.00;1.00;;;;;18.64;68.98;101001.94;6216527;22;45299;-90
2021/06/28 04:01:13;;;;;;;;;2.00;2.00;;;;;18.61;69.41;101016.16;6217234;22;45320;-89
2021/06/28 04:03:49;;;;;;;;;2.00;2.00;;;;;18.66;69.03;101019.34;6243988;22;46033;-89
2021/06/28 04:06:25;;;;;;;;;2.00;2.00;;;;;18.62;69.29;100990.66;6216675;22;45589;-89
2021/06/28 04:09:05;;;;;;;;;;;;;;;;;;;;;
2021/06/28 04:11:33;;;;;;;;;3.33;2.00;;;;;18.66;68.71;101015.88;6242522;22;64208;-89
2021/06/28 04:13:59;;;;;;;;;2.00;2.00;;;;;18.65;68.98;101009.75;6215154;22;46821;-89
2021/06/28 04:16:26;;;;;;;;;2.00;2.00;;;;;18.66;69.37;101010.63;6216466;22;45358;-90
2021/06/28 04:19:02;;;;;;;;;;;;;;;;;;;;;
2021/06/28 04:21:27;;;;;;;;;3.33;2.00;;;;;18.65;68.68;101036.13;6242228;22;62814;-89
2021/06/28 04:23:53;;;;;;;;;2.00;2.00;;;;;18.59;68.45;101023.34;6216623;22;47635;-90
2021/06/28 04:26:20;;;;;;;;;3.00;3.00;;;;;18.56;69.26;101023.53;6243639;22;45520;-89
2021/06/28 04:28:53;;;;;;;;;2.00;2.00;;;;;18.59;69.32;101022.47;6243965;22;45227;-90
2021/06/28 04:31:21;;;;;;;;;1.00;1.00;;;;;18.63;69.05;101013.44;6244061;22;45314;-89
2021/06/28 04:33:52;;;;;;;;;2.00;2.00;;;;;18.61;68.87;101017.97;6215764;22;47998;-89
2021/06/28 04:36:27;;;;;;;;;1.67;1.67;;;;;18.63;69.17;101026.63;6243046;22;45898;-90
2021/06/28 04:38:57;;;;;;;;;2.00;1.00;;;;;18.61;69.20;101010.06;6215562;22;45318;-90
2021/06/28 04:41:28;;;;;;;;;1.67;1.67;;;;;18.62;69.33;101031.06;6217164;22;45451;-89
2021/06/28 04:43:56;;;;;;;;;4.33;2.33;;;;;18.60;69.28;101025.03;6215588;22;46954;-89
2021/06/28 04:46:29;;;;;;;;;2.00;2.00;;;;;18.62;68.94;101032.84;6216144;22;45293;-89
2021/06/28 04:49:04;;;;;;;;;2.33;2.33;;;;;18.58;69.44;101018.16;6216685;22;45326;-90
2021/06/28 04:51:31;;;;;;;;;2.00;2.00;;;;;18.58;69.14;101023.44;6216398;22;45560;-89
2021/06/28 04:54:07;;;;;;;;;4.67;3.00;;;;;18.55;69.08;101049.06;6216163;22;47562;-89
2021/06/28 04:56:40;;;;;;;;;2.00;2.00;;;;;18.54;68.98;101044.75;6217616;22;45333;-89
2021/06/28 04:59:05;;;;;;;;;3.00;3.00;;;;;18.54;69.03;101044.75;6216560;22;45294;-90
2021/06/28 05:01:56;;;;;;;;;2.00;2.00;;;;;18.55;69.14;101049.06;6216805;22;45484;-89
2021/06/28 05:04:31;;;;;;;;;2.00;2.00;;;;;18.57;69.20;101059.50;6216678;22;47021;-89
2021/06/28 05:06:59;;;;;;;;;1.33;1.33;;;;;18.57;69.01;101059.50;6216517;22;45333;-90
2021/06/28 05:09:30;;;;;;;;;3.67;2.00;;;;;18.52;69.22;101058.97;6243844;22;45457;-89
2021/06/28 05:12:03;;;;;;;;;2.33;2.33;;;;;18.53;69.26;101068.56;6215913;22;45314;-88
2021/06/28 05:14:38;;;;;;;;;2.00;2.00;;;;;18.51;69.56;101060.72;6243653;22;46230;-89
2021/06/28 05:19:55;;;;;;;;;4.00;3.00;;;;;18.60;69.28;101071.63;6149690;23;45414;-89
2021/06/28 05:22:30;;;;;;;;;2.00;2.00;;;;;18.62;69.30;101065.31;6149681;23;45516;-89
2021/06/28 05:24:55;;;;;;;;;3.00;3.00;;;;;18.66;69.43;101072.06;6149703;23;45681;-90
2021/06/28 05:27:24;;;;;;;;;3.33;3.00;;;;;18.69;69.60;101069.25;6149964;23;45273;-89
2021/06/28 05:29:55;;;;;;;;;2.33;2.00;;;;;18.69;68.96;101057.84;6125590;23;45430;-89
2021/06/28 05:32:25;;;;;;;;;6.00;2.00;;;;;18.72;68.95;101059.44;6150798;23;45273;-89
2021/06/28 05:34:51;;;;;;;;;2.00;2.00;;;;;18.74;69.25;101071.56;6149050;23;47293;-89
2021/06/28 05:37:17;;;;;;;;;4.00;4.00;;;;;18.76;69.08;101079.38;6150294;23;45451;-88
2021/06/28 05:39:44;;;;;;;;;3.00;3.00;;;;;18.73;69.19;101058.47;6124726;23;45399;-89
2021/06/28 05:42:19;;;;;;;;;3.00;3.00;;;;;18.78;68.92;101054.63;6150289;23;45506;-89
2021/06/28 05:44:45;;;;;;;;;4.00;3.00;;;;;18.77;69.00;101060.84;6123880;23;47320;-89
2021/06/28 05:47:14;;;;;;;;;1.00;1.00;;;;;18.73;68.73;101040.03;6125075;23;45328;-89
2021/06/28 05:49:45;;;;;;;;;2.33;2.33;;;;;18.74;69.31;101032.03;6149845;23;45291;-89
2021/06/28 05:52:14;;;;;;;;;2.00;2.00;;;;;18.79;68.57;101018.56;6149444;23;45584;-89
2021/06/28 05:54:40;;;;;;;;;8.00;2.67;;;;;18.77;69.00;101015.16;6148949;23;46843;-88
2021/06/28 05:57:08;;;;;;;;;2.00;2.00;;;;;18.84;68.92;101019.06;6182894;22;45405;-89
2021/06/28 05:59:36;;;;;;;;;3.33;3.00;;;;;18.87;68.81;101020.66;6212309;22;45396;-89
2021/06/28 06:02:02;;;;;;;;;3.67;3.67;;;;;18.84;69.01;101011.16;6211222;22;45472;-89
2021/06/28 06:04:35;;;;;;;;;2.33;2.33;;;;;18.89;68.57;101018.78;6166091;22;46436;-89
2021/06/28 06:07:03;;;;;;;;;2.33;2.33;;;;;18.93;68.82;101015.00;6196740;22;45489;-89
2021/06/28 06:09:31;;;;;;;;;3.00;2.67;;;;;18.94;68.97;101024.59;6210626;22;45252;-89
2021/06/28 06:11:59;;;;;;;;;3.00;3.00;;;;;18.94;68.77;101038.59;6210948;22;45370;-89
2021/06/28 06:14:34;;;;;;;;;3.00;3.00;;;;;18.94;68.66;101043.88;6211632;22;45715;-89
2021/06/28 06:17:04;;;;;;;;;4.33;3.00;;;;;18.95;68.47;101053.50;6210608;22;45974;-89
2021/06/28 06:19:32;;;;;;;;;5.00;3.33;;;;;18.91;68.83;101054.66;6210613;22;45883;-89
2021/06/28 06:21:58;;;;;;;;;3.00;3.00;;;;;18.87;68.21;101050.53;6211818;22;45393;-89
2021/06/28 06:24:27;;;;;;;;;3.00;3.00;;;;;18.89;68.72;101053.06;6209871;22;47752;-89
2021/06/28 06:27:08;;;;;;;;;9.00;5.00;;;;;18.90;68.39;101076.69;6210646;22;45367;-88
2021/06/28 06:29:36;;;;;;;;;3.00;3.00;;;;;18.88;68.36;101090.94;6212592;22;45392;-89
2021/06/28 06:32:04;;;;;;;;;3.33;3.33;;;;;18.81;68.73;101087.84;6211123;22;45438;-89
2021/06/28 06:34:30;;;;;;;;;5.00;4.00;;;;;18.81;68.29;101098.38;6211394;22;45814;-90
2021/06/28 06:36:55;;;;;;;;;3.00;3.00;;;;;18.78;68.53;101096.78;6211224;22;45283;-89
2021/06/28 06:39:21;;;;;;;;;6.33;4.00;;;;;18.78;68.78;101101.22;6210893;22;45507;-90
2021/06/28 06:41:47;;;;;;;;;4.00;4.00;;;;;18.75;68.24;101107.53;6213050;22;45286;-89
2021/06/28 06:44:12;;;;;;;;;4.33;3.00;;;;;18.77;68.68;101110.06;6210133;22;47920;-89
2021/06/28 06:46:45;;;;;;;;;4.67;4.67;;;;;18.78;68.58;101103.84;6213030;22;45337;-90
2021/06/28 06:49:11;;;;;;;;;4.33;3.67;;;;;18.82;68.83;101097.44;6211526;22;45324;-89
2021/06/28 06:51:37;;;;;;;;;3.00;3.00;;;;;18.84;68.72;101098.16;6210644;22;45413;-90
2021/06/28 06:54:03;;;;;;;;;5.00;5.00;;;;;18.90;69.17;101110.97;6211038;22;47010;-89
2021/06/28 06:56:28;;;;;;;;;4.00;4.00;;;;;18.91;68.63;101101.25;6210578;22;45563;-90
2021/06/28 06:58:53;;;;;;;;;5.00;3.00;;;;;18.91;68.49;101080.16;6212364;22;45358;-89
2021/06/28 07:01:19;;;;;;;;;6.00;4.00;;;;;18.93;68.54;101092.31;6212651;22;45513;-89
2021/06/28 07:03:45;;;;;;;;;3.00;3.00;;;;;18.95;68.62;101095.69;6212220;22;47844;-89
2021/06/28 07:06:11;;;;;;;;;3.00;3.00;;;;;18.97;68.53;101090.31;6211399;22;45409;-89
2021/06/28 07:08:37;;;;;;;;;3.00;3.00;;;;;19.03;68.70;101094.34;6212118;22;45543;-89
2021/06/28 07:11:06;;;;;;;;;4.00;4.00;;;;;19.02;68.56;101085.56;6214429;22;45171;-90
2021/06/28 07:13:32;;;;;;;;;8.00;5.00;;;;;19.04;68.11;101086.38;6213969;22;45642;-87
2021/06/28 07:15:58;;;;;;;;;3.00;3.00;;;;;19.05;67.95;101109.16;6213141;22;45297;-89
2021/06/28 07:18:23;;;;;;;;;6.00;4.33;;;;;19.06;68.18;101108.19;6211288;22;45589;-89
2021/06/28 07:20:48;;;;;;;;;6.33;5.00;;;;;19.04;68.04;101102.19;6214152;22;45302;-89
2021/06/28 07:23:14;;;;;;;;;6.00;6.00;;;;;19.08;68.24;101101.00;6213554;22;45418;-88
2021/06/28 07:25:39;;;;;;;;;6.67;5.00;;;;;19.02;68.31;101106.66;6213662;22;45373;-88
2021/06/28 07:28:05;;;;;;;;;5.33;4.00;;;;;18.99;68.12;101101.63;6211543;22;45392;-89
2021/06/28 07:30:31;;;;;;;;;5.67;4.00;;;;;19.05;68.50;101110.94;6213973;22;45329;-89
2021/06/28 07:32:57;;;;;;;;;6.00;4.67;;;;;19.02;68.01;101103.19;6211754;22;47240;-88
2021/06/28 07:35:23;;;;;;;;;6.33;5.00;;;;;19.05;68.07;101117.06;6211482;22;45358;-90
2021/06/28 07:37:48;;;;;;;;;8.00;5.33;;;;;19.02;67.89;101111.94;6209852;22;45294;-90
2021/06/28 07:40:17;;;;;;;;;5.33;4.00;;;;;19.04;68.28;101118.00;6213219;22;45274;-90
2021/06/28 07:42:42;;;;;;;;;5.00;5.00;;;;;19.07;68.39;101116.97;6213315;22;45349;-90
2021/06/28 07:45:09;;;;;;;;;5.00;5.00;;;;;19.13;68.02;101124.47;6213862;22;45310;-90
2021/06/28 07:47:35;;;;;;;;;10.33;7.00;;;;;19.12;67.96;101116.66;6211572;22;45413;-90
2021/06/28 07:50:01;;;;;;;;;5.00;5.00;;;;;19.19;68.35;101117.94;6208822;22;45220;-89
2021/06/28 07:52:27;;;;;;;;;5.00;5.00;;;;;19.21;68.05;101116.06;6211506;22;47431;-90
2021/06/28 07:54:53;;;;;;;;;6.67;5.33;;;;;19.24;67.96;101115.81;6214084;22;45341;-90
2021/06/28 07:57:19;;;;;;;;;9.00;5.00;;;;;19.32;67.56;101124.09;6212133;22;45280;-89
2021/06/28 07:59:44;;;;;;;;;7.00;5.00;;;;;19.32;67.43;101115.31;6213313;22;45321;-89
2021/06/28 08:02:10;;;;;;;;;4.00;4.00;;;;;19.37;67.41;101113.22;6213572;22;45616;-88
2021/06/28 08:04:35;;;;;;;;;3.33;3.00;;;;;19.45;67.20;101120.63;6212938;22;45319;-89
2021/06/28 08:07:00;;;;;;;;;4.67;4.00;;;;;19.44;67.18;101114.47;6210111;22;45754;-88
2021/06/28 08:09:26;;;;;;;;;3.00;3.00;;;;;19.50;66.57;101115.88;6211407;22;45283;-90
2021/06/28 08:11:51;;;;;;;;;4.00;4.00;;;;;19.54;66.32;101106.81;6211479;22;46052;-89
2021/06/28 08:14:18;;;;;;;;;4.00;4.00;;;;;19.63;66.82;101121.16;6213165;22;45289;-89
2021/06/28 08:16:45;;;;;;;;;2.33;2.33;;;;;19.67;66.71;101121.78;6213548;22;45508;-89
2021/06/28 08:19:11;;;;;;;;;3.00;3.00;;;;;19.70;66.41;101119.78;6211963;22;45760;-89
2021/06/28 08:21:38;;;;;;;;;3.33;3.33;;;;;19.74;66.30;101115.13;6211376;22;47923;-90
2021/06/28 08:24:05;;;;;;;;;5.00;5.00;;;;;19.78;66.17;101108.69;6213663;22;45188;-89
2021/06/28 08:26:32;;;;;;;;;6.33;4.33;;;;;19.80;66.21;101101.50;6213632;22;45350;-89
2021/06/28 08:28:58;;;;;;;;;6.67;5.00;;;;;19.86;66.43;101103.72;6212975;22;45312;-89
2021/06/28 08:31:23;;;;;;;;;4.67;4.33;;;;;19.96;66.39;101101.31;6210903;22;47289;-90
2021/06/28 08:33:49;;;;;;;;;1.67;1.67;;;;;20.05;65.59;101107.75;6213574;22;45481;-89
2021/06/28 08:36:14;;;;;;;;;2.00;1.33;;;;;20.10;65.31;101103.00;6213797;22;45297;-90
2021/06/28 08:38:40;;;;;;;;;2.33;1.33;;;;;20.19;64.65;101109.41;6214010;22;45333;-89
2021/06/28 08:41:06;;;;;;;;;3.33;2.00;;;;;20.20;64.28;101108.47;6211720;22;46020;-90
2021/06/28 08:43:31;;;;;;;;;1.00;1.00;;;;;20.23;64.36;101105.59;6212983;22;45194;-89
2021/06/28 08:45:57;;;;;;;;;4.67;2.00;;;;;20.33;64.75;101112.88;6213708;22;45219;-90
2021/06/28 08:48:23;;;;;;;;;2.33;2.00;;;;;20.41;64.49;101106.06;6211587;22;45474;-90
2021/06/28 08:50:55;;;;;;;;;2.00;2.00;;;;;20.48;63.07;101111.75;6219837;22;45261;-89
2021/06/28 08:53:22;;;;;;;;;2.00;2.00;;;;;20.52;63.04;101112.38;6242222;22;45239;-89
2021/06/28 08:55:47;;;;;;;;;2.67;2.00;;;;;20.55;63.45;101118.28;6243712;22;45231;-88
2021/06/28 08:58:12;;;;;;;;;5.00;2.00;;;;;20.65;63.09;101112.34;6214423;22;45405;-89
2021/06/28 09:00:38;;;;;;;;;1.00;1.00;;;;;20.71;62.76;101103.94;6243136;22;45441;-88
2021/06/28 09:03:07;;;;;;;;;3.33;2.00;;;;;20.82;63.01;101113.72;6243629;22;45157;-89
2021/06/28 09:05:59;;;;;;;;;2.67;2.00;;;;;20.93;62.85;101121.75;6216312;22;45326;-88
2021/06/28 09:08:24;;;;;;;;;3.00;2.00;;;;;21.04;62.80;101118.31;6243836;22;45438;-89
2021/06/28 09:10:50;;;;;;;;;3.00;1.00;;;;;21.16;62.29;101105.94;6233156;22;45919;-90
2021/06/28 09:13:15;;;;;;;;;2.33;2.00;;;;;21.29;61.81;101110.34;6214984;22;45354;-89
2021/06/28 09:15:44;;;;;;;;;1.00;1.00;;;;;21.42;61.79;101119.03;6215416;22;45802;-88
2021/06/28 09:18:21;;;;;;;;;2.00;2.00;;;;;21.61;61.95;101126.41;6243277;22;45389;-89
2021/06/28 09:20:48;;;;;;;;;1.67;1.67;;;;;21.73;61.20;101119.34;6242850;22;45268;-88
2021/06/28 09:23:23;;;;;;;;;2.33;1.00;;;;;21.91;60.76;101123.31;6242790;22;45428;-89
2021/06/28 09:25:52;;;;;;;;;1.00;1.00;;;;;22.07;60.50;101144.16;6215835;22;45247;-88
2021/06/28 09:28:31;;;;;;;;;0.33;0.33;;;;;22.03;58.13;101132.94;6243787;22;45266;-89
2021/06/28 09:30:57;;;;;;;;;1.00;1.00;;;;;22.06;58.92;101134.50;6242973;22;45347;-88
2021/06/28 09:33:25;;;;;;;;;0.00;0.00;;;;;22.10;58.87;101134.16;6214865;22;45525;-89
2021/06/28 09:35:51;;;;;;;;;0.33;0.33;;;;;22.17;59.05;101134.50;6243558;22;45448;-89
2021/06/28 09:38:38;;;;;;;;;1.00;1.00;;;;;22.27;56.89;101142.59;6216198;22;45314;-89
2021/06/28 09:41:25;;;;;;;;;0.33;0.33;;;;;22.32;57.69;101144.88;6243118;22;46340;-89
2021/06/28 09:43:57;;;;;;;;;0.33;0.33;;;;;22.39;58.18;101143.41;6243526;22;45519;-89
2021/06/28 09:46:23;;;;;;;;;2.00;1.00;;;;;22.41;57.19;101142.31;6242800;22;45384;-88
2021/06/28 09:48:50;;;;;;;;;1.67;0.67;;;;;22.49;57.29;101136.38;6241437;22;45442;-89
2021/06/28 09:51:27;;;;;;;;;0.67;0.67;;;;;22.58;57.28;101147.28;6242843;22;46004;-90
2021/06/28 09:54:15;;;;;;;;;0.33;0.33;;;;;22.65;57.60;101145.78;6215533;22;45286;-89
2021/06/28 09:57:05;;;;;;;;;1.00;1.00;;;;;22.77;57.53;101146.63;6127736;23;45330;-88
2021/06/28 09:59:38;;;;;;;;;0.33;0.33;;;;;22.80;56.35;101141.03;6123626;23;45307;-88
2021/06/28 10:02:15;;;;;;;;;3.00;0.33;;;;;22.91;56.80;101153.44;6148730;23;46179;-90
2021/06/28 10:04:52;;;;;;;;;1.33;0.67;;;;;22.94;55.90;101142.56;6148791;23;45264;-89
2021/06/28 10:07:24;;;;;;;;;0.33;0.33;;;;;23.00;56.11;101147.34;6149204;23;45835;-88
2021/06/28 10:10:09;;;;;;;;;2.00;1.33;;;;;23.02;55.38;101149.91;6149888;23;45284;-89
2021/06/28 10:12:36;;;;;;;;;0.33;0.33;;;;;23.01;54.85;101153.53;6149872;23;46381;-89
2021/06/28 10:15:03;;;;;;;;;0.33;0.33;;;;;23.00;54.99;101150.00;6123297;23;45401;-89
2021/06/28 10:17:29;;;;;;;;;1.00;0.33;;;;;23.00;54.85;101160.63;6149366;23;45397;-89
2021/06/28 10:19:55;;;;;;;;;0.67;0.67;;;;;23.02;55.34;101160.50;6149511;23;45347;-90
2021/06/28 10:22:21;;;;;;;;;0.67;0.67;;;;;22.99;54.89;101163.44;6146207;23;46445;-89
2021/06/28 10:24:46;;;;;;;;;2.33;0.00;;;;;22.93;54.31;101162.97;6149507;23;45285;-90
2021/06/28 10:27:12;;;;;;;;;1.00;1.00;;;;;22.87;54.40;101157.31;6139478;23;45429;-89
2021/06/28 10:29:37;;;;;;;;;1.67;1.33;;;;;22.85;54.75;101162.75;6150050;23;45272;-89
2021/06/28 10:32:09;;;;;;;;;1.00;1.00;;;;;22.85;55.39;101151.31;6149685;23;45963;-90
2021/06/28 10:34:37;;;;;;;;;1.50;0.50;;;;;22.94;56.07;101162.00;6221989;22;45519;-90
2021/06/28 10:37:04;;;;;;;;;0.67;0.67;;;;;23.02;54.70;101160.50;6217277;22;44814;-90
2021/06/28 10:39:31;;;;;;;;;0.33;0.33;;;;;23.10;54.96;101163.38;6244940;22;45286;-89
2021/06/28 10:41:58;;;;;;;;;0.67;0.00;;;;;23.12;54.89;101150.81;6244104;22;45299;-90
2021/06/28 10:44:26;;;;;;;;;1.00;1.00;;;;;23.14;54.69;101148.03;6241721;22;45774;-89
2021/06/28 10:46:55;;;;;;;;;0.67;0.67;;;;;23.16;54.80;101148.75;6244214;22;45299;-89
2021/06/28 10:49:47;;;;;;;;;0.00;0.00;;;;;23.17;54.02;101156.59;6244930;22;45345;-88
2021/06/28 10:52:42;;;;;;;;;1.67;1.67;;;;;23.12;55.03;101148.16;6243392;22;46397;-89
2021/06/28 10:55:17;;;;;;;;;1.00;1.00;;;;;23.16;54.77;101146.94;6215506;22;45315;-89
2021/06/28 10:57:43;;;;;;;;;0.33;0.33;;;;;23.15;54.88;101150.53;6214061;22;45331;-88
2021/06/28 11:00:09;;;;;;;;;1.00;1.00;;;;;23.15;54.67;101137.28;6242614;22;45510;-89
2021/06/28 11:02:39;;;;;;;;;0.33;0.33;;;;;23.16;54.86;101143.44;6240505;22;46218;-89
2021/06/28 11:05:07;;;;;;;;;1.00;1.00;;;;;23.16;54.94;101143.44;6214095;22;45896;-89
2021/06/28 11:07:48;;;;;;;;;0.00;0.00;;;;;23.13;54.82;101138.41;6214921;22;45248;-89
2021/06/28 11:10:37;;;;;;;;;1.00;1.00;;;;;23.12;55.02;101132.25;6214225;22;45471;-89
2021/06/28 11:13:38;;;;;;;;;0.00;0.00;;;;;23.11;54.60;101130.56;6242197;22;45394;-90
2021/06/28 11:16:31;;;;;;;;;0.00;0.00;;;;;23.12;54.39;101142.84;6242190;22;45367;-90
2021/06/28 11:18:56;;;;;;;;;1.00;1.00;;;;;23.17;55.11;101130.03;6215485;22;45213;-89
2021/06/28 11:21:41;;;;;;;;;1.00;1.00;;;;;23.38;55.53;101125.75;6242809;22;45676;-89
2021/06/28 11:24:08;;;;;;;;;0.67;0.00;;;;;23.60;55.30;101132.69;6242660;22;46593;-89
2021/06/28 11:26:35;;;;;;;;;0.00;0.00;;;;;23.71;52.89;101127.34;6214190;22;45315;-88
2021/06/28 11:29:01;;;;;;;;;0.00;0.00;;;;;23.78;54.22;101119.66;6242021;22;45417;-90
2021/06/28 11:31:29;;;;;;;;;3.00;0.00;;;;;23.91;54.19;101126.56;6242525;22;45295;-93
2021/06/28 11:33:58;;;;;;;;;0.33;0.33;;;;;24.08;53.58;101122.47;6213647;22;48271;-89
2021/06/28 11:36:23;;;;;;;;;0.00;0.00;;;;;24.31;53.81;101128.41;6241335;22;45314;-89
2021/06/28 11:38:50;;;;;;;;;0.00;0.00;;;;;24.41;53.32;101118.66;6213992;22;45575;-89
2021/06/28 11:41:17;;;;;;;;;0.00;0.00;;;;;24.55;52.79;101125.41;6243008;22;45409;-90
2021/06/28 11:43:44;;;;;;;;;2.00;1.33;;;;;24.66;52.66;101132.41;6214166;22;47202;-90
2021/06/28 11:46:29;;;;;;;;;0.33;0.33;;;;;24.78;52.46;101121.63;6241951;22;45341;-90